Time;durP1;ratioP1;P1;durP2;ratioP2;P2;SDS_P1;SDS_P2;PMS_P1;PMS_P2;Temp;Humidity;BMP_temperature;BMP_pressure;BME280_temperature;BME280_humidity;BME280_pressure;Samples;Min_cycle;Max_cycle;Signal;HPM_P1;HPM_P2
2022/01/29 00:00:56;;;;;;;18.40;9.13;;;3.80;86.20;;;;;;5102234;28;20424;-71
2022/01/29 00:03:23;;;;;;;17.90;9.20;;;3.70;86.50;;;;;;5096090;28;20838;-70
2022/01/29 00:05:49;;;;;;;20.50;9.47;;;3.70;86.90;;;;;;5094779;28;20504;-70
2022/01/29 00:08:16;;;;;;;21.73;9.60;;;3.60;87.30;;;;;;5094416;28;20432;-69
2022/01/29 00:10:44;;;;;;;18.13;9.77;;;3.70;87.40;;;;;;5093226;28;20425;-69
2022/01/29 00:13:10;;;;;;;17.70;9.00;;;3.70;87.70;;;;;;5088584;28;20423;-70
2022/01/29 00:15:35;;;;;;;18.23;8.97;;;3.70;87.60;;;;;;5093941;28;20889;-69
2022/01/29 00:18:02;;;;;;;16.03;9.00;;;3.60;87.70;;;;;;5092390;28;20527;-71
2022/01/29 00:20:27;;;;;;;21.37;10.47;;;3.70;88.00;;;;;;5093784;28;20413;-69
2022/01/29 00:22:53;;;;;;;17.43;9.43;;;3.70;88.00;;;;;;5093763;28;20409;-69
2022/01/29 00:25:19;;;;;;;18.80;9.70;;;3.70;88.00;;;;;;5093666;28;20183;-69
2022/01/29 00:27:45;;;;;;;20.57;9.13;;;3.70;88.00;;;;;;5093717;28;20218;-70
2022/01/29 00:30:16;;;;;;;17.60;9.67;;;3.70;88.00;;;;;;5093630;28;20267;-71
2022/01/29 00:32:42;;;;;;;15.10;8.60;;;3.70;87.70;;;;;;5092309;28;20194;-69
2022/01/29 00:35:08;;;;;;;14.93;9.43;;;3.70;87.60;;;;;;5093341;28;20417;-70
2022/01/29 00:37:34;;;;;;;17.43;8.57;;;3.70;87.40;;;;;;5093609;28;20229;-69
2022/01/29 00:39:59;;;;;;;14.67;8.47;;;3.70;87.30;;;;;;5093241;28;20452;-70
2022/01/29 00:42:25;;;;;;;18.30;8.80;;;3.70;87.30;;;;;;5094013;28;20273;-69
2022/01/29 00:44:51;;;;;;;16.10;7.30;;;3.70;87.30;;;;;;5093446;28;20633;-70
2022/01/29 00:47:17;;;;;;;17.23;9.27;;;3.70;87.00;;;;;;5088720;28;20207;-70
2022/01/29 00:49:44;;;;;;;14.30;7.33;;;3.70;87.00;;;;;;5093758;28;20413;-69
2022/01/29 00:52:10;;;;;;;16.03;8.37;;;3.70;87.00;;;;;;5087182;28;20449;-71
2022/01/29 00:54:36;;;;;;;13.80;7.80;;;3.70;86.90;;;;;;5093247;28;20474;-70
2022/01/29 00:57:02;;;;;;;14.67;8.47;;;3.70;86.80;;;;;;5092877;28;20432;-70
2022/01/29 00:59:28;;;;;;;16.53;8.30;;;3.70;86.80;;;;;;5092101;28;20424;-69
2022/01/29 01:01:54;;;;;;;15.20;8.53;;;3.70;86.60;;;;;;5092773;28;20413;-69
2022/01/29 01:04:20;;;;;;;16.63;9.07;;;3.70;86.60;;;;;;5092592;28;20559;-71
2022/01/29 01:06:46;;;;;;;15.83;7.60;;;3.70;86.30;;;;;;5092885;28;20179;-70
2022/01/29 01:09:11;;;;;;;14.50;8.27;;;3.70;86.30;;;;;;5093253;28;20206;-70
2022/01/29 01:11:37;;;;;;;14.67;8.57;;;3.70;86.20;;;;;;5092529;28;20190;-71
2022/01/29 01:14:03;;;;;;;16.40;8.57;;;3.70;86.20;;;;;;5092942;28;20475;-71
2022/01/29 01:16:29;;;;;;;16.47;7.27;;;3.70;86.00;;;;;;5092560;28;20179;-71
2022/01/29 01:18:55;;;;;;;16.43;7.50;;;3.70;86.00;;;;;;5092790;28;20527;-69
2022/01/29 01:21:20;;;;;;;12.70;8.27;;;3.70;85.90;;;;;;5091523;28;20183;-69
2022/01/29 01:23:46;;;;;;;15.00;8.23;;;3.70;85.90;;;;;;5093386;28;20211;-70
2022/01/29 01:26:12;;;;;;;18.70;8.37;;;3.70;86.20;;;;;;5093051;28;20707;-70
2022/01/29 01:28:37;;;;;;;15.73;7.73;;;3.70;86.00;;;;;;5093070;28;20201;-70
2022/01/29 01:31:03;;;;;;;19.20;8.80;;;3.70;85.90;;;;;;5092777;28;20648;-71
2022/01/29 01:33:29;;;;;;;16.43;8.03;;;3.70;85.90;;;;;;5091950;28;20237;-71
2022/01/29 01:35:59;;;;;;;13.23;7.10;;;3.70;85.90;;;;;;5093346;28;20558;-70
2022/01/29 01:38:45;;;;;;;11.23;7.40;;;3.70;85.90;;;;;;5091448;28;20657;-69
2022/01/29 01:41:14;;;;;;;12.50;7.60;;;3.70;85.90;;;;;;5086770;28;20410;-69
2022/01/29 01:43:40;;;;;;;14.63;6.50;;;3.80;86.20;;;;;;5092804;28;20987;-70
2022/01/29 01:46:06;;;;;;;16.43;7.70;;;3.80;85.60;;;;;;5092240;28;20536;-70
2022/01/29 01:48:32;;;;;;;13.27;7.73;;;3.80;85.20;;;;;;5092366;28;20202;-69
2022/01/29 01:50:58;;;;;;;14.20;8.10;;;3.80;85.50;;;;;;5092779;28;20417;-70
2022/01/29 01:53:24;;;;;;;11.07;6.70;;;3.80;85.30;;;;;;5091932;28;20425;-69
2022/01/29 01:55:50;;;;;;;9.80;6.57;;;3.80;85.60;;;;;;5093248;28;20427;-70
2022/01/29 01:58:17;;;;;;;14.80;7.33;;;3.70;85.50;;;;;;5091988;28;20452;-70
2022/01/29 02:00:43;;;;;;;11.70;6.43;;;3.70;85.60;;;;;;5092426;28;20421;-69
2022/01/29 02:03:09;;;;;;;12.70;6.97;;;3.70;85.90;;;;;;5092607;28;20911;-70
2022/01/29 02:05:35;;;;;;;11.40;6.97;;;3.80;85.90;;;;;;5091565;28;20417;-70
2022/01/29 02:08:02;;;;;;;16.70;7.80;;;3.80;85.70;;;;;;5091785;28;20447;-69
2022/01/29 02:10:28;;;;;;;12.23;6.93;;;3.90;85.90;;;;;;5094934;28;20448;-71
2022/01/29 02:12:58;;;;;;;13.30;7.27;;;4.00;85.70;;;;;;5098640;28;20421;-69
2022/01/29 02:15:25;;;;;;;18.10;7.90;;;4.00;85.00;;;;;;5103538;28;20432;-70
2022/01/29 02:17:51;;;;;;;12.43;6.40;;;4.00;84.90;;;;;;5101391;28;20935;-71
2022/01/29 02:20:21;;;;;;;14.70;6.73;;;3.90;84.90;;;;;;5093677;28;20413;-72
2022/01/29 02:22:48;;;;;;;12.43;6.80;;;3.90;84.90;;;;;;5103720;28;20429;-71
2022/01/29 02:25:46;;;;;;;21.40;7.73;;;3.80;84.60;;;;;;5102012;28;21095;-73
2022/01/29 02:28:22;;;;;;;11.30;7.00;;;3.80;85.00;;;;;;5097282;28;20437;-72
2022/01/29 02:30:59;;;;;;;16.33;7.73;;;3.90;85.00;;;;;;5091486;28;20444;-72
2022/01/29 02:33:26;;;;;;;8.60;6.17;;;3.80;85.20;;;;;;5091754;28;20895;-70
2022/01/29 02:35:53;;;;;;;14.10;7.07;;;3.80;85.50;;;;;;5090036;28;20433;-69
2022/01/29 02:38:22;;;;;;;13.53;6.97;;;3.90;85.50;;;;;;5091316;28;20489;-70
2022/01/29 02:40:50;;;;;;;11.23;6.70;;;3.80;85.50;;;;;;5091358;28;20444;-71
2022/01/29 02:43:17;;;;;;;14.30;7.77;;;3.90;85.60;;;;;;5093247;28;20457;-71
2022/01/29 02:45:46;;;;;;;8.60;6.37;;;3.90;85.50;;;;;;5091778;28;20433;-71
2022/01/29 02:48:12;;;;;;;14.83;7.63;;;3.90;85.50;;;;;;5091958;28;20461;-71
2022/01/29 02:50:39;;;;;;;17.80;8.60;;;4.00;85.50;;;;;;5091812;28;20451;-69
2022/01/29 02:53:06;;;;;;;13.27;7.00;;;4.00;85.20;;;;;;5091497;28;20421;-70
2022/01/29 02:55:32;;;;;;;12.53;7.10;;;4.00;84.90;;;;;;5091217;28;20456;-71
2022/01/29 02:57:58;;;;;;;11.87;7.30;;;4.00;84.60;;;;;;5091717;28;20471;-69
2022/01/29 03:00:24;;;;;;;10.33;6.50;;;3.90;84.70;;;;;;5091662;28;20414;-70
2022/01/29 03:02:50;;;;;;;15.40;7.53;;;3.80;85.20;;;;;;5091687;28;20413;-71
2022/01/29 03:05:16;;;;;;;11.67;6.60;;;3.70;85.50;;;;;;5100649;28;20504;-70
2022/01/29 03:07:42;;;;;;;14.43;6.87;;;3.60;85.50;;;;;;5098200;28;20306;-70
2022/01/29 03:10:08;;;;;;;14.80;7.03;;;3.70;85.60;;;;;;5090172;28;21069;-70
2022/01/29 03:12:37;;;;;;;12.03;6.70;;;3.60;85.50;;;;;;5091355;28;20417;-69
2022/01/29 03:15:04;;;;;;;11.57;6.30;;;3.60;85.90;;;;;;5091200;28;20509;-70
2022/01/29 03:17:30;;;;;;;13.90;6.33;;;3.60;86.30;;;;;;5091614;28;20439;-71
2022/01/29 03:19:55;;;;;;;10.50;6.20;;;3.70;86.50;;;;;;5091487;28;20422;-71
2022/01/29 03:22:21;;;;;;;11.30;5.90;;;3.80;86.20;;;;;;5091845;28;20187;-71
2022/01/29 03:24:47;;;;;;;13.33;5.83;;;3.70;85.90;;;;;;5090767;28;20215;-70
2022/01/29 03:27:12;;;;;;;9.50;5.70;;;3.70;85.70;;;;;;5093777;28;20205;-71
2022/01/29 03:29:38;;;;;;;9.30;5.40;;;3.80;85.90;;;;;;5094517;28;20658;-68
2022/01/29 03:32:04;;;;;;;15.00;7.00;;;3.80;85.60;;;;;;5094850;28;20228;-69
2022/01/29 03:34:30;;;;;;;9.90;5.90;;;3.90;85.60;;;;;;5094953;28;20175;-71
2022/01/29 03:36:57;;;;;;;10.90;5.40;;;3.90;85.50;;;;;;5094723;28;20413;-70
2022/01/29 03:39:25;;;;;;;9.00;5.60;;;3.80;85.30;;;;;;5095081;28;21140;-69
2022/01/29 03:41:52;;;;;;;9.80;5.60;;;3.90;85.50;;;;;;5094116;28;20425;-70
2022/01/29 03:44:18;;;;;;;10.97;5.73;;;3.90;85.30;;;;;;5095121;28;20480;-71
2022/01/29 03:46:45;;;;;;;10.27;5.40;;;3.80;85.50;;;;;;5094173;28;20436;-69
2022/01/29 03:49:11;;;;;;;13.93;7.00;;;3.90;85.50;;;;;;5094509;28;20860;-70
2022/01/29 03:51:36;;;;;;;14.23;6.07;;;3.90;85.00;;;;;;5094216;28;20421;-70
2022/01/29 03:54:02;;;;;;;12.87;6.00;;;3.90;84.40;;;;;;5093274;28;20923;-70
2022/01/29 03:56:28;;;;;;;8.47;5.70;;;3.90;84.00;;;;;;5094044;28;20187;-71
2022/01/29 03:58:54;;;;;;;10.07;5.50;;;3.90;83.80;;;;;;5094379;28;20207;-69
2022/01/29 04:01:19;;;;;;;10.30;5.83;;;3.90;84.10;;;;;;5093855;28;20857;-70
2022/01/29 04:03:45;;;;;;;11.23;5.97;;;3.90;84.00;;;;;;5094203;28;20206;-71
2022/01/29 04:06:11;;;;;;;8.10;4.83;;;3.90;83.80;;;;;;5093989;28;20450;-70
2022/01/29 04:08:41;;;;;;;10.07;6.30;;;3.90;84.00;;;;;;5094029;28;20282;-69
2022/01/29 04:11:10;;;;;;;11.60;5.97;;;4.00;84.00;;;;;;5093700;28;20433;-70
2022/01/29 04:13:37;;;;;;;9.20;5.20;;;4.00;83.70;;;;;;5093904;28;20946;-71
2022/01/29 04:16:03;;;;;;;8.20;4.73;;;3.90;83.40;;;;;;5094111;28;20895;-71
2022/01/29 04:18:29;;;;;;;10.63;5.60;;;3.90;83.40;;;;;;5094617;28;20441;-71
2022/01/29 04:20:55;;;;;;;8.57;4.83;;;3.90;83.10;;;;;;5094292;28;20416;-69
2022/01/29 04:23:20;;;;;;;7.83;4.50;;;3.90;83.00;;;;;;5094429;28;20206;-69
2022/01/29 04:25:46;;;;;;;6.00;4.20;;;3.90;83.00;;;;;;5094323;28;20211;-70
2022/01/29 04:28:14;;;;;;;9.30;5.20;;;3.90;82.80;;;;;;5094299;28;20203;-70
2022/01/29 04:30:51;;;;;;;8.13;4.43;;;3.80;83.00;;;;;;5092390;28;20421;-72
2022/01/29 04:35:49;;;;;;;5.43;3.80;;;3.80;83.30;;;;;;5094163;28;20448;-70
2022/01/29 04:38:15;;;;;;;8.30;4.00;;;3.80;83.40;;;;;;5093199;28;20527;-69
2022/01/29 04:40:42;;;;;;;8.07;4.00;;;3.80;83.60;;;;;;5092817;28;20474;-70
2022/01/29 04:43:08;;;;;;;5.70;4.60;;;3.70;83.80;;;;;;5094555;28;20421;-71
2022/01/29 04:45:33;;;;;;;11.37;4.27;;;3.70;83.80;;;;;;5093937;28;20448;-69
2022/01/29 04:47:59;;;;;;;8.90;4.77;;;3.70;84.10;;;;;;5095124;28;20433;-71
2022/01/29 04:50:26;;;;;;;7.70;4.27;;;3.70;84.60;;;;;;5094274;28;20258;-71
2022/01/29 04:52:52;;;;;;;7.80;4.43;;;3.70;84.60;;;;;;5094693;28;20433;-70
2022/01/29 04:55:18;;;;;;;8.00;4.40;;;3.70;84.60;;;;;;5093952;28;20453;-70
2022/01/29 04:57:44;;;;;;;8.77;4.20;;;3.90;84.10;;;;;;5093020;28;20441;-71
2022/01/29 05:00:20;;;;;;;8.93;4.63;;;3.80;84.00;;;;;;5093632;28;20202;-70
2022/01/29 05:02:55;;;;;;;9.37;3.87;;;3.90;83.80;;;;;;5093899;28;20183;-70
2022/01/29 05:05:21;;;;;;;12.37;4.90;;;3.90;83.40;;;;;;5093335;28;20464;-71
2022/01/29 05:07:47;;;;;;;7.37;4.63;;;3.90;83.10;;;;;;5093944;28;20585;-70
2022/01/29 05:10:14;;;;;;;6.87;4.10;;;4.00;82.80;;;;;;5097210;28;20421;-71
2022/01/29 05:12:52;;;;;;;7.27;4.70;;;3.90;82.80;;;;;;5098482;28;20450;-70
2022/01/29 05:28:47;;;;;;;13.87;7.87;;;3.50;86.60;;;;;;5093154;28;20864;-70
2022/01/29 05:31:13;;;;;;;15.37;8.87;;;3.50;87.10;;;;;;5091516;28;20421;-69
2022/01/29 05:33:39;;;;;;;15.10;8.63;;;3.60;87.10;;;;;;5093154;28;20204;-68
2022/01/29 05:36:05;;;;;;;15.23;9.20;;;3.50;87.30;;;;;;5093359;28;20186;-71
2022/01/29 05:38:30;;;;;;;13.43;8.20;;;3.40;87.80;;;;;;5093201;28;20526;-71
2022/01/29 05:40:56;;;;;;;16.33;9.00;;;3.40;88.30;;;;;;5092713;28;20516;-70
2022/01/29 05:43:23;;;;;;;21.67;10.10;;;3.40;88.30;;;;;;5092978;28;20203;-70
2022/01/29 05:45:48;;;;;;;21.83;10.27;;;3.30;88.40;;;;;;5092319;28;20441;-70
2022/01/29 05:48:14;;;;;;;25.93;10.23;;;3.30;88.90;;;;;;5092881;28;20438;-70
2022/01/29 05:50:40;;;;;;;17.57;9.77;;;3.20;89.30;;;;;;5092576;28;20492;-71
2022/01/29 05:53:06;;;;;;;18.00;9.50;;;3.30;89.60;;;;;;5092672;28;20916;-70
2022/01/29 05:55:32;;;;;;;17.73;9.93;;;3.30;89.50;;;;;;5092587;28;20416;-71
2022/01/29 05:57:58;;;;;;;17.60;9.70;;;3.30;89.30;;;;;;5092358;28;20194;-71
2022/01/29 06:00:24;;;;;;;22.90;11.70;;;3.30;89.50;;;;;;5092084;28;20171;-71
2022/01/29 06:03:19;;;;;;;23.80;11.20;;;3.30;89.60;;;;;;5092869;28;20421;-70
2022/01/29 06:05:44;;;;;;;21.13;9.73;;;3.30;89.60;;;;;;5028139;28;20216;-72
2022/01/29 06:08:10;;;;;;;18.53;10.60;;;3.30;89.50;;;;;;5020491;28;20429;-70
2022/01/29 06:10:36;;;;;;;20.97;10.90;;;3.30;89.60;;;;;;5029361;28;20200;-70
2022/01/29 06:13:08;;;;;;;27.13;13.00;;;3.20;89.50;;;;;;5026785;28;20445;-70
2022/01/29 06:15:45;;;;;;;27.37;12.23;;;3.10;89.90;;;;;;5028182;28;20420;-71
2022/01/29 06:18:14;;;;;;;26.90;12.53;;;3.20;90.10;;;;;;5028316;28;20435;-70
2022/01/29 06:20:41;;;;;;;23.77;12.32;;;3.20;90.10;;;;;;5027995;28;20419;-70
2022/01/29 06:23:09;;;;;;;29.55;13.30;;;3.20;90.00;;;;;;5021310;28;20217;-71
2022/01/29 06:25:35;;;;;;;23.63;11.10;;;3.20;90.10;;;;;;5023990;28;20598;-70
2022/01/29 06:28:00;;;;;;;24.70;12.07;;;3.20;90.20;;;;;;5027651;28;20221;-71
2022/01/29 06:30:26;;;;;;;24.10;11.70;;;3.20;90.40;;;;;;5024599;28;20643;-71
2022/01/29 06:32:52;;;;;;;24.90;11.43;;;3.30;90.30;;;;;;5031190;28;20177;-72
2022/01/29 06:35:18;;;;;;;23.73;11.20;;;3.30;90.30;;;;;;5022327;28;20827;-70
2022/01/29 06:37:43;;;;;;;24.90;11.50;;;3.30;90.20;;;;;;5022678;28;20205;-70
2022/01/29 06:40:10;;;;;;;22.63;10.63;;;3.30;90.10;;;;;;5027333;28;20192;-69
2022/01/29 06:42:36;;;;;;;22.40;10.60;;;3.30;89.70;;;;;;5070994;28;20270;-69
2022/01/29 06:45:02;;;;;;;26.10;12.63;;;3.30;89.70;;;;;;5091651;28;20456;-70
2022/01/29 06:47:28;;;;;;;24.50;11.67;;;3.20;89.90;;;;;;5091778;28;20934;-69
2022/01/29 06:49:54;;;;;;;24.13;12.10;;;3.20;90.00;;;;;;5091540;28;20417;-70
2022/01/29 06:52:20;;;;;;;26.73;12.30;;;3.30;90.10;;;;;;5091943;28;20626;-70
2022/01/29 06:54:45;;;;;;;22.77;11.23;;;3.30;90.10;;;;;;5091702;28;20271;-71
2022/01/29 06:57:11;;;;;;;23.10;11.30;;;3.40;89.90;;;;;;5090001;28;20446;-71
2022/01/29 06:59:37;;;;;;;27.33;12.00;;;3.50;89.50;;;;;;5090868;28;20901;-69
2022/01/29 07:02:03;;;;;;;26.80;11.83;;;3.50;89.00;;;;;;5089683;28;20201;-70
2022/01/29 07:04:29;;;;;;;25.30;11.73;;;3.40;89.00;;;;;;5091212;28;20223;-69
2022/01/29 07:06:54;;;;;;;19.80;11.97;;;3.40;89.50;;;;;;5091370;28;20420;-71
2022/01/29 07:09:20;;;;;;;19.97;11.43;;;3.50;89.50;;;;;;5090011;28;20203;-72
2022/01/29 07:11:47;;;;;;;25.83;10.60;;;3.50;89.30;;;;;;5091713;28;20707;-71
2022/01/29 07:14:17;;;;;;;15.40;9.10;;;3.50;89.30;;;;;;5092156;28;20186;-72
2022/01/29 07:16:43;;;;;;;24.33;9.83;;;3.50;89.30;;;;;;5097418;28;20904;-71
2022/01/29 07:19:09;;;;;;;24.57;10.50;;;3.50;88.90;;;;;;5090753;28;21142;-70
2022/01/29 07:21:36;;;;;;;22.33;10.18;;;3.50;88.90;;;;;;5091331;28;20428;-70
2022/01/29 07:24:02;;;;;;;23.55;10.52;;;3.50;89.00;;;;;;5091123;28;20579;-71
2022/01/29 07:26:28;;;;;;;18.40;9.97;;;3.50;89.20;;;;;;5090908;28;20179;-72
2022/01/29 07:28:53;;;;;;;21.50;10.33;;;3.50;88.90;;;;;;5091099;28;20449;-71
2022/01/29 07:31:20;;;;;;;14.57;7.87;;;3.60;88.70;;;;;;5091061;28;20175;-71
2022/01/29 07:33:46;;;;;;;11.73;6.28;;;3.60;88.40;;;;;;5090933;28;20183;-70
2022/01/29 07:36:12;;;;;;;11.13;7.10;;;3.50;88.00;;;;;;5090816;28;20183;-70
2022/01/29 07:38:38;;;;;;;11.97;6.60;;;3.50;87.70;;;;;;5090914;28;20202;-70
2022/01/29 07:41:03;;;;;;;14.83;6.50;;;3.50;87.60;;;;;;5090831;28;20206;-69
2022/01/29 07:43:29;;;;;;;11.47;6.33;;;3.50;87.60;;;;;;5091040;28;20293;-72
2022/01/29 07:45:55;;;;;;;13.00;6.30;;;3.50;87.40;;;;;;5091232;28;20187;-70
2022/01/29 07:48:20;;;;;;;11.30;6.17;;;3.60;87.00;;;;;;5090920;28;20290;-69
2022/01/29 07:50:46;;;;;;;12.73;6.67;;;3.60;86.90;;;;;;5090905;28;20189;-70
2022/01/29 07:53:12;;;;;;;8.50;5.00;;;3.70;86.60;;;;;;5089464;28;20175;-70
2022/01/29 07:55:39;;;;;;;10.33;5.57;;;3.80;85.90;;;;;;5090587;28;20210;-69
2022/01/29 07:58:05;;;;;;;9.47;4.83;;;3.90;84.60;;;;;;5091097;28;20530;-71
2022/01/29 08:00:31;;;;;;;6.70;5.10;;;3.90;83.80;;;;;;5089284;28;20175;-71
2022/01/29 08:02:56;;;;;;;8.10;4.30;;;3.90;84.00;;;;;;5090904;28;20183;-72
2022/01/29 08:05:23;;;;;;;11.10;4.23;;;4.00;83.10;;;;;;5090687;28;20492;-69
2022/01/29 08:07:48;;;;;;;7.03;4.00;;;4.10;81.50;;;;;;5091008;28;20213;-71
2022/01/29 08:10:14;;;;;;;8.07;4.23;;;4.10;81.20;;;;;;5090627;28;20417;-70
2022/01/29 08:12:40;;;;;;;5.20;3.70;;;4.10;80.60;;;;;;5092684;28;20215;-72
2022/01/29 08:15:06;;;;;;;8.53;3.87;;;4.10;80.20;;;;;;5094459;28;20183;-71
2022/01/29 08:17:32;;;;;;;6.87;3.70;;;4.20;80.00;;;;;;5094333;28;20207;-71
2022/01/29 08:19:58;;;;;;;6.40;3.83;;;4.20;79.20;;;;;;5094144;28;20911;-71
2022/01/29 08:22:24;;;;;;;11.07;4.00;;;4.20;78.70;;;;;;5094966;28;20423;-71
2022/01/29 08:24:52;;;;;;;4.17;3.20;;;4.30;78.90;;;;;;5094619;28;20469;-71
2022/01/29 08:27:18;;;;;;;9.60;4.20;;;4.30;78.90;;;;;;5095633;28;20417;-71
2022/01/29 08:29:44;;;;;;;9.73;4.10;;;4.40;78.60;;;;;;5095368;28;20417;-70
2022/01/29 08:32:10;;;;;;;9.70;4.60;;;4.40;78.70;;;;;;5094180;28;20447;-72
2022/01/29 08:34:35;;;;;;;8.80;4.17;;;4.40;79.00;;;;;;5094576;28;20184;-71
2022/01/29 08:37:03;;;;;;;10.20;3.97;;;4.50;78.90;;;;;;5095035;28;20476;-70
2022/01/29 08:39:29;;;;;;;6.53;3.63;;;4.60;78.00;;;;;;5092449;28;20242;-71
2022/01/29 08:41:56;;;;;;;5.23;3.70;;;4.70;77.70;;;;;;5094384;28;20934;-71
2022/01/29 08:44:21;;;;;;;7.97;4.57;;;4.80;77.10;;;;;;5094183;28;20970;-70
2022/01/29 08:46:47;;;;;;;6.30;3.70;;;4.80;77.00;;;;;;5092786;28;20451;-71
2022/01/29 08:49:13;;;;;;;10.60;4.77;;;4.80;76.20;;;;;;5093601;28;20199;-70
2022/01/29 08:51:39;;;;;;;7.87;4.57;;;4.80;75.40;;;;;;5094183;28;20240;-70
2022/01/29 08:54:05;;;;;;;8.80;4.33;;;4.80;75.80;;;;;;5093961;28;20210;-71
2022/01/29 08:56:31;;;;;;;7.43;4.53;;;4.90;76.10;;;;;;5093659;28;20183;-71
2022/01/29 08:58:57;;;;;;;8.17;4.30;;;5.00;75.70;;;;;;5093621;28;20452;-72
2022/01/29 09:01:23;;;;;;;7.60;4.60;;;5.10;75.80;;;;;;5093762;28;20425;-71
2022/01/29 09:03:49;;;;;;;6.47;4.00;;;5.10;75.80;;;;;;5090156;28;20309;-71
2022/01/29 09:06:15;;;;;;;7.77;4.90;;;5.20;75.50;;;;;;5094693;28;20211;-70
2022/01/29 09:08:40;;;;;;;9.50;5.03;;;5.30;75.20;;;;;;5094934;28;20499;-72
2022/01/29 09:11:07;;;;;;;8.60;4.63;;;5.20;74.80;;;;;;5094180;28;20417;-71
2022/01/29 09:13:33;;;;;;;7.40;4.80;;;5.20;75.10;;;;;;5094591;28;20417;-70
2022/01/29 09:15:59;;;;;;;10.77;5.07;;;5.20;75.20;;;;;;5096984;28;20405;-69
2022/01/29 09:18:25;;;;;;;10.53;5.33;;;5.20;75.20;;;;;;5102997;28;20440;-69
2022/01/29 09:20:51;;;;;;;10.10;4.37;;;5.20;75.20;;;;;;5100160;28;20187;-72
2022/01/29 09:23:17;;;;;;;6.93;4.50;;;5.20;75.50;;;;;;5093082;28;20466;-72
2022/01/29 09:25:43;;;;;;;14.10;4.40;;;5.30;75.40;;;;;;5092225;28;20496;-71
2022/01/29 09:28:13;;;;;;;9.60;5.50;;;5.40;75.10;;;;;;5091639;28;20199;-70
2022/01/29 09:30:40;;;;;;;6.17;4.60;;;5.50;74.80;;;;;;5092256;28;20417;-72
2022/01/29 09:33:05;;;;;;;8.50;4.50;;;5.40;74.60;;;;;;5089896;28;20980;-71
2022/01/29 09:35:31;;;;;;;6.60;4.70;;;5.40;74.60;;;;;;5091989;28;20513;-72
2022/01/29 09:37:57;;;;;;;8.53;5.00;;;5.50;75.10;;;;;;5091868;28;20199;-72
2022/01/29 09:40:23;;;;;;;8.80;4.97;;;5.60;74.90;;;;;;5091334;28;20493;-71
2022/01/29 09:42:51;;;;;;;7.90;4.43;;;5.70;74.80;;;;;;5091581;28;20183;-73
2022/01/29 09:45:20;;;;;;;8.23;4.90;;;5.80;74.90;;;;;;5091719;28;20518;-72
2022/01/29 09:47:47;;;;;;;8.67;4.43;;;5.90;74.50;;;;;;5091029;28;20982;-70
2022/01/29 09:50:15;;;;;;;7.60;4.40;;;6.00;74.60;;;;;;5091970;28;20966;-72
2022/01/29 09:52:41;;;;;;;6.10;4.60;;;6.10;74.30;;;;;;5091276;28;20426;-72
2022/01/29 09:55:08;;;;;;;10.10;5.50;;;6.10;74.50;;;;;;5091030;28;20417;-72
2022/01/29 09:57:35;;;;;;;10.40;4.90;;;6.10;74.50;;;;;;5090069;28;20568;-70
2022/01/29 10:00:01;;;;;;;7.40;4.50;;;6.00;75.10;;;;;;5091306;28;20417;-69
2022/01/29 10:02:27;;;;;;;10.10;5.13;;;6.00;75.40;;;;;;5093370;28;20467;-73
2022/01/29 10:04:55;;;;;;;8.97;4.80;;;6.00;75.70;;;;;;5096748;28;20518;-71
2022/01/29 10:07:27;;;;;;;8.80;5.07;;;6.20;75.70;;;;;;5097038;28;20441;-71
2022/01/29 10:09:55;;;;;;;7.00;4.63;;;6.30;75.40;;;;;;5098121;28;20429;-72
2022/01/29 10:12:32;;;;;;;9.00;4.87;;;6.50;74.80;;;;;;5100003;28;20516;-70
2022/01/29 10:15:07;;;;;;;9.33;5.10;;;6.60;74.60;;;;;;5100277;28;20413;-72
2022/01/29 10:17:42;;;;;;;11.47;4.90;;;6.70;74.50;;;;;;5100038;28;20440;-72
2022/01/29 10:20:08;;;;;;;10.67;4.60;;;6.70;74.90;;;;;;5100150;28;20448;-71
2022/01/29 10:22:34;;;;;;;9.60;4.90;;;6.80;74.80;;;;;;5094920;28;20424;-72
2022/01/29 10:25:04;;;;;;;6.93;4.30;;;6.90;74.80;;;;;;5090453;28;20461;-71
2022/01/29 10:27:30;;;;;;;7.17;3.97;;;7.00;74.80;;;;;;5090772;28;20472;-70
2022/01/29 10:30:00;;;;;;;8.37;4.53;;;6.90;75.40;;;;;;5089669;28;20457;-70
2022/01/29 10:32:26;;;;;;;9.27;4.93;;;6.90;75.10;;;;;;5088914;28;20183;-71
2022/01/29 10:34:56;;;;;;;9.63;5.37;;;6.90;75.40;;;;;;5090097;28;20429;-71
2022/01/29 10:37:26;;;;;;;6.63;3.93;;;6.80;76.10;;;;;;5090398;28;20806;-70
2022/01/29 10:39:56;;;;;;;7.47;4.60;;;6.90;76.40;;;;;;5089719;28;20425;-70
2022/01/29 10:42:36;;;;;;;7.30;4.53;;;6.90;75.90;;;;;;5089989;28;20466;-71
2022/01/29 10:45:07;;;;;;;9.87;4.80;;;6.90;75.90;;;;;;5084225;28;20479;-71
2022/01/29 10:47:56;;;;;;;10.30;4.57;;;6.80;76.20;;;;;;5089675;28;20467;-71
2022/01/29 10:50:23;;;;;;;9.23;4.87;;;6.90;76.70;;;;;;5088955;28;20417;-70
2022/01/29 10:52:49;;;;;;;10.93;5.17;;;7.00;76.40;;;;;;5090357;28;20421;-71
2022/01/29 10:55:15;;;;;;;13.83;3.90;;;7.10;76.20;;;;;;5089748;28;20421;-71
2022/01/29 10:57:44;;;;;;;9.77;4.20;;;7.20;76.20;;;;;;5090058;28;20492;-73
2022/01/29 11:00:23;;;;;;;7.10;3.63;;;7.20;76.20;;;;;;5089970;28;20494;-71
2022/01/29 11:02:53;;;;;;;9.30;4.30;;;7.30;76.10;;;;;;5090722;28;20428;-71
2022/01/29 11:05:23;;;;;;;5.57;4.10;;;7.50;75.80;;;;;;5090382;28;20465;-71
2022/01/29 11:07:54;;;;;;;6.10;3.60;;;7.50;75.80;;;;;;5090618;28;20475;-72
2022/01/29 11:10:20;;;;;;;6.73;3.57;;;7.40;76.50;;;;;;5091395;28;20428;-73
2022/01/29 11:12:48;;;;;;;4.57;2.67;;;7.50;77.00;;;;;;5091926;28;20423;-71
2022/01/29 11:15:22;;;;;;;7.57;3.40;;;7.30;77.40;;;;;;5092940;28;20421;-72
2022/01/29 11:17:48;;;;;;;5.20;3.10;;;7.30;78.10;;;;;;5090238;28;20564;-70
2022/01/29 11:20:15;;;;;;;4.47;2.63;;;7.20;78.90;;;;;;5090901;28;20835;-71
2022/01/29 11:22:45;;;;;;;5.97;3.10;;;7.10;79.50;;;;;;5089674;28;20538;-71
2022/01/29 11:25:22;;;;;;;4.70;3.03;;;7.30;79.20;;;;;;5095883;28;20476;-71
2022/01/29 11:28:13;;;;;;;6.77;2.73;;;7.30;79.20;;;;;;5090266;28;20545;-71
2022/01/29 11:30:41;;;;;;;6.33;3.10;;;7.40;78.90;;;;;;5088055;28;20514;-70
2022/01/29 11:33:06;;;;;;;4.87;2.60;;;7.40;78.90;;;;;;5088124;28;20538;-69
2022/01/29 11:35:32;;;;;;;2.93;2.30;;;7.30;79.20;;;;;;5090527;28;20423;-71
2022/01/29 11:38:06;;;;;;;4.77;2.50;;;7.40;79.50;;;;;;5089691;28;20209;-71
2022/01/29 11:40:39;;;;;;;4.60;2.47;;;7.40;79.50;;;;;;5089272;28;20670;-71
2022/01/29 11:43:13;;;;;;;6.07;3.07;;;7.30;79.50;;;;;;5090040;28;20764;-71
2022/01/29 11:45:56;;;;;;;3.77;2.23;;;7.20;80.00;;;;;;5088650;28;20523;-70
2022/01/29 11:48:33;;;;;;;5.33;2.63;;;7.20;80.60;;;;;;5092187;28;20536;-71
2022/01/29 11:51:10;;;;;;;5.73;2.20;;;7.10;80.80;;;;;;5086968;28;20424;-71
2022/01/29 11:53:45;;;;;;;9.00;2.60;;;7.20;80.90;;;;;;5094141;28;20484;-70
2022/01/29 11:56:37;;;;;;;3.30;2.37;;;7.20;80.60;;;;;;5093649;28;20420;-71
2022/01/29 11:59:17;;;;;;;4.57;2.67;;;7.30;81.10;;;;;;5086483;28;20514;-72
2022/01/29 12:01:45;;;;;;;4.67;2.50;;;7.20;80.60;;;;;;5087973;28;20802;-73
2022/01/29 12:04:11;;;;;;;4.10;2.70;;;7.30;80.60;;;;;;5092770;28;20510;-71
2022/01/29 12:06:43;;;;;;;4.60;2.30;;;7.30;80.80;;;;;;5092848;28;20547;-72
2022/01/29 12:09:14;;;;;;;4.23;2.73;;;7.40;80.60;;;;;;5087433;28;20465;-70
2022/01/29 12:11:42;;;;;;;2.97;2.17;;;7.50;80.20;;;;;;5091772;28;20443;-71
2022/01/29 12:14:13;;;;;;;4.50;2.70;;;7.40;80.50;;;;;;5090162;28;20424;-71
2022/01/29 12:16:57;;;;;;;5.53;3.00;;;7.50;80.80;;;;;;5096083;28;20433;-70
2022/01/29 12:19:43;;;;;;;3.77;2.60;;;7.50;80.30;;;;;;5094863;28;20460;-71
2022/01/29 12:22:21;;;;;;;3.30;2.67;;;7.50;80.30;;;;;;5093096;28;20417;-72
2022/01/29 12:24:58;;;;;;;2.73;2.20;;;7.50;80.80;;;;;;5100457;28;20460;-73
2022/01/29 12:27:39;;;;;;;3.77;2.53;;;7.40;81.40;;;;;;5097058;28;20524;-70
2022/01/29 12:30:05;;;;;;;5.63;2.70;;;7.40;81.50;;;;;;5101110;28;20417;-69
2022/01/29 12:32:31;;;;;;;4.37;2.50;;;7.50;81.40;;;;;;5100441;28;20421;-70
2022/01/29 12:34:59;;;;;;;5.73;2.60;;;7.40;81.50;;;;;;5102723;28;20523;-71
2022/01/29 12:37:24;;;;;;;5.10;2.90;;;7.40;81.90;;;;;;5105752;28;20626;-72
2022/01/29 12:40:02;;;;;;;4.57;3.20;;;7.50;82.10;;;;;;5097845;28;20443;-71
2022/01/29 12:42:43;;;;;;;4.23;2.33;;;7.50;81.70;;;;;;5088761;28;20206;-71
2022/01/29 12:45:09;;;;;;;3.70;2.57;;;7.60;81.80;;;;;;5086986;28;20465;-72
2022/01/29 12:47:35;;;;;;;6.00;2.70;;;7.50;81.70;;;;;;5089992;28;20498;-70
2022/01/29 12:50:03;;;;;;;4.60;2.83;;;7.50;82.40;;;;;;5090862;28;20421;-70
2022/01/29 12:52:29;;;;;;;4.20;2.37;;;7.40;83.00;;;;;;5091022;28;20422;-71
2022/01/29 12:55:01;;;;;;;3.07;2.00;;;7.30;83.40;;;;;;5089802;28;20417;-72
2022/01/29 12:57:44;;;;;;;7.40;2.63;;;7.20;84.00;;;;;;5092868;28;20441;-71
2022/01/29 13:00:13;;;;;;;3.93;2.30;;;7.10;84.70;;;;;;5085560;28;20550;-71
2022/01/29 13:02:39;;;;;;;4.60;2.37;;;7.10;85.00;;;;;;5089240;28;20432;-71
2022/01/29 13:05:05;;;;;;;5.30;3.17;;;7.00;85.20;;;;;;5088760;28;20465;-70
2022/01/29 13:07:34;;;;;;;3.87;2.23;;;6.90;85.30;;;;;;5090254;28;20429;-70
2022/01/29 13:10:00;;;;;;;3.73;2.40;;;6.90;85.60;;;;;;5090111;28;20539;-70